Leonia, New Jersey
Current Conditions -  °F | °C
As of 10:51 AM on Saturday 25 Oct 2014 (Local Time) from KTEB Reporting Station
Clear Clear  
Wind Chill: 59°   Ceiling: Unl
Heat Index: 59°   Visibility: 10mi
Dew Point: 40°   Wind: 9mph
Humidity: 49%   Direction: 290°WNW
Pressure: 29.84"   Gusts: NA
Location:  40.86°N, 73.99°W
Report Text: KTEB 251451Z 29008KT 10SM CLR 15/04 A2984 RMK AO2 SLP103 T01500044 56011
Loading
Personal Weather Stations






























Interactive Weather Map New forecast layout! Learn more

10-Day Weather Forecast

Advertisements
Track Severe Weather on mobile